EKVJ/STA METAR and TAF weather

Enter ICAO airport designator
Station Type Date Time Source
EKVJ METAR 2019/06/20 07:20 UTC NOAA

EKVJ 200720Z 24010KT 8000 BKN006 17/17 Q1006


Station Type Date Time Source
EKVJ Decoded METAR 2019/06/20 07:20 UTC NOAA

Stauning Lufthavn, Denmark (EKVJ) 56-00N 008-21E 5M
Jun 20, 2019 - 03:20 AM EDT / 2019.06.20 0720 UTC
Wind: from the WSW (240 degrees) at 12 MPH (10 KT):0
Visibility: 4 mile(s):0
Sky conditions: mostly cloudy
Temperature: 62 F (17 C)
Dew Point: 62 F (17 C)
Relative Humidity: 100%
Pressure (altimeter): 29.71 in. Hg (1006 hPa)
ob: EKVJ 200720Z 24010KT 8000 BKN006 17/17 Q1006
cycle: 7

Station Type Date Time Source
EKVJ TAF UTC NOAA

Error!

Example: see airport list